Time;durP1;ratioP1;P1;durP2;ratioP2;P2;SDS_P1;SDS_P2;PMS_P1;PMS_P2;Temp;Humidity;BMP_temperature;BMP_pressure;BME280_temperature;BME280_humidity;BME280_pressure;Samples;Min_cycle;Max_cycle;Signal;HPM_P1;HPM_P2
2022/12/22 03:26:19;;;;;;;69.03;34.80;;;7.40;99.90;;;;;;4970607;28;20051;-79
2022/12/22 03:28:45;;;;;;;72.75;34.85;;;7.40;99.90;;;;;;4970814;28;20057;-79
2022/12/22 03:31:11;;;;;;;67.35;33.65;;;7.40;99.90;;;;;;4970325;28;20038;-79
2022/12/22 03:33:37;;;;;;;66.85;35.92;;;7.40;99.90;;;;;;4970094;28;20489;-79
2022/12/22 03:36:03;;;;;;;78.15;35.75;;;7.40;99.90;;;;;;4970030;28;20050;-79
2022/12/22 03:38:29;;;;;;;84.93;39.67;;;7.40;99.90;;;;;;4969638;28;20093;-79
2022/12/22 03:40:55;;;;;;;71.07;35.17;;;7.40;99.90;;;;;;4968564;28;20445;-79
2022/12/22 03:48:34;;;;;;;83.63;40.05;;;7.40;99.90;;;;;;4970155;28;20051;-79
2022/12/22 03:50:59;;;;;;;90.60;38.05;;;7.50;99.90;;;;;;4970011;28;20073;-79
2022/12/22 03:53:25;;;;;;;84.25;38.72;;;7.50;99.90;;;;;;4969022;28;20442;-79
2022/12/22 03:55:50;;;;;;;96.07;42.28;;;7.50;99.90;;;;;;4969848;28;20065;-79
2022/12/22 03:58:16;;;;;;;75.28;35.50;;;7.50;99.90;;;;;;4970126;28;20051;-79
2022/12/22 04:00:42;;;;;;;81.75;37.08;;;7.40;99.90;;;;;;4969923;28;20073;-79
2022/12/22 04:03:07;;;;;;;78.30;35.47;;;7.40;99.90;;;;;;4969595;28;20078;-79
2022/12/22 04:05:33;;;;;;;70.13;34.03;;;7.40;99.90;;;;;;4969739;28;20155;-79
2022/12/22 04:07:58;;;;;;;79.65;38.00;;;7.40;99.90;;;;;;4968712;28;20047;-79
2022/12/22 04:13:08;;;;;;;65.53;32.25;;;7.40;99.90;;;;;;4969510;28;20058;-79
2022/12/22 04:15:34;;;;;;;67.65;34.00;;;7.40;99.90;;;;;;4969284;28;20477;-79
2022/12/22 04:17:59;;;;;;;57.67;28.80;;;7.40;99.90;;;;;;4968334;28;20046;-79
2022/12/22 04:20:26;;;;;;;65.38;33.40;;;7.40;99.90;;;;;;4969585;28;20039;-79
2022/12/22 04:22:52;;;;;;;56.45;30.92;;;7.30;99.90;;;;;;4968645;28;20050;-79
2022/12/22 04:25:18;;;;;;;52.67;27.25;;;7.40;99.90;;;;;;4970081;28;20162;-79
2022/12/22 04:27:44;;;;;;;53.28;29.88;;;7.30;99.90;;;;;;4954584;28;20122;-78
2022/12/22 04:30:10;;;;;;;64.82;29.33;;;7.30;99.90;;;;;;4963847;28;20126;-79
2022/12/22 04:32:36;;;;;;;55.28;28.60;;;7.30;99.90;;;;;;4969512;28;20050;-79
2022/12/22 04:35:02;;;;;;;56.05;28.80;;;7.30;99.90;;;;;;4969142;28;20039;-79
2022/12/22 04:37:28;;;;;;;45.10;25.98;;;7.30;99.90;;;;;;4968761;28;20505;-79
2022/12/22 04:39:53;;;;;;;57.97;27.60;;;7.30;99.90;;;;;;4969240;28;20042;-79
2022/12/22 04:42:19;;;;;;;63.40;27.70;;;7.30;99.90;;;;;;4968393;28;20515;-79
2022/12/22 04:44:44;;;;;;;49.15;26.00;;;7.30;99.90;;;;;;4969493;28;20440;-79
2022/12/22 04:47:10;;;;;;;49.55;23.85;;;7.30;99.90;;;;;;4969244;28;20043;-79
2022/12/22 04:49:36;;;;;;;56.75;25.40;;;7.20;99.90;;;;;;4969647;28;20113;-79
2022/12/22 04:52:01;;;;;;;45.20;22.58;;;7.20;99.90;;;;;;4968182;28;20085;-79
2022/12/22 04:54:27;;;;;;;47.53;25.75;;;7.10;99.90;;;;;;4969139;28;20422;-79
2022/12/22 04:56:52;;;;;;;46.33;23.92;;;7.10;99.90;;;;;;4969158;28;20053;-79
2022/12/22 04:59:18;;;;;;;42.78;21.85;;;7.10;99.90;;;;;;4969543;28;20563;-79
2022/12/22 05:01:44;;;;;;;45.05;23.10;;;7.10;99.90;;;;;;4969684;28;20074;-79
2022/12/22 05:04:09;;;;;;;61.88;27.67;;;7.00;99.90;;;;;;4969091;28;20416;-79
2022/12/22 05:06:35;;;;;;;63.97;26.65;;;7.00;99.90;;;;;;4969483;28;20726;-79
2022/12/22 05:09:00;;;;;;;46.85;22.05;;;7.00;99.90;;;;;;4950977;28;20051;-79
2022/12/22 05:11:26;;;;;;;62.28;28.50;;;7.00;99.90;;;;;;4969196;28;20043;-79
2022/12/22 05:13:52;;;;;;;91.25;27.55;;;7.00;99.90;;;;;;4967382;28;20055;-79
2022/12/22 05:16:17;;;;;;;93.47;35.50;;;7.10;99.90;;;;;;4968248;28;20465;-79
2022/12/22 05:18:44;;;;;;;90.32;31.02;;;7.00;99.90;;;;;;4969187;28;20051;-79
2022/12/22 05:21:19;;;;;;;61.35;27.35;;;7.00;99.90;;;;;;4967353;28;20078;-79
2022/12/22 05:23:45;;;;;;;152.73;46.88;;;7.00;99.90;;;;;;4968691;28;20126;-78
2022/12/22 05:26:13;;;;;;;78.00;30.50;;;7.10;99.90;;;;;;4967182;28;20074;-79
2022/12/22 05:28:40;;;;;;;61.28;28.90;;;7.10;99.90;;;;;;4968997;28;20055;-79
2022/12/22 05:31:08;;;;;;;66.18;29.50;;;7.10;99.90;;;;;;4967169;28;20478;-79
2022/12/22 05:33:35;;;;;;;56.55;26.55;;;7.10;99.90;;;;;;4969154;28;20089;-79
2022/12/22 05:36:00;;;;;;;109.03;35.75;;;7.10;99.90;;;;;;4968694;28;20047;-79
2022/12/22 05:38:26;;;;;;;61.60;27.73;;;7.20;99.90;;;;;;4968299;28;20047;-79
2022/12/22 05:40:52;;;;;;;69.28;25.75;;;7.10;99.90;;;;;;4969020;28;20493;-79
2022/12/22 05:43:18;;;;;;;65.18;27.15;;;7.10;99.90;;;;;;4971253;28;20050;-79
2022/12/22 05:45:44;;;;;;;99.97;35.03;;;7.10;99.90;;;;;;4972427;28;20527;-79
2022/12/22 05:48:10;;;;;;;106.72;32.83;;;7.10;99.90;;;;;;4972018;28;20375;-79
2022/12/22 05:50:35;;;;;;;109.15;32.17;;;7.20;99.90;;;;;;4970863;28;20043;-79
2022/12/22 05:53:01;;;;;;;56.97;20.15;;;7.20;99.90;;;;;;4970739;28;20051;-79
2022/12/22 05:55:26;;;;;;;64.97;21.60;;;7.10;99.90;;;;;;4971772;28;20050;-79
2022/12/22 05:57:52;;;;;;;61.17;20.92;;;7.10;99.90;;;;;;4972257;28;20043;-79
2022/12/22 06:00:18;;;;;;;72.13;22.42;;;7.10;99.90;;;;;;4971124;28;20042;-79
2022/12/22 06:02:44;;;;;;;47.53;18.65;;;7.10;99.90;;;;;;4971129;28;20169;-79
2022/12/22 06:05:11;;;;;;;57.35;18.73;;;7.10;99.90;;;;;;4971585;28;20130;-79
2022/12/22 06:07:37;;;;;;;44.10;18.65;;;7.10;99.90;;;;;;4970830;28;20166;-79
2022/12/22 06:10:08;;;;;;;69.20;20.67;;;7.10;99.90;;;;;;4971698;28;20039;-79
2022/12/22 06:12:33;;;;;;;41.65;15.85;;;7.10;99.90;;;;;;4971365;28;20046;-79
2022/12/22 06:14:59;;;;;;;56.00;17.55;;;7.00;99.90;;;;;;4970423;28;20051;-79
2022/12/22 06:17:24;;;;;;;62.03;19.25;;;7.00;99.90;;;;;;4971266;28;20035;-79
2022/12/22 06:19:50;;;;;;;47.42;16.38;;;7.00;99.90;;;;;;4969465;28;20397;-79
2022/12/22 06:22:16;;;;;;;50.90;17.40;;;7.00;99.90;;;;;;4970145;28;20039;-79
2022/12/22 06:24:41;;;;;;;48.75;16.83;;;7.00;99.90;;;;;;4968031;28;20047;-79
2022/12/22 06:27:07;;;;;;;73.38;20.13;;;7.00;99.90;;;;;;4969309;28;20046;-80
2022/12/22 06:29:33;;;;;;;37.20;16.15;;;7.00;99.90;;;;;;4970020;28;20513;-79
2022/12/22 06:31:59;;;;;;;41.20;13.90;;;7.00;99.90;;;;;;4970947;28;20077;-79
2022/12/22 06:34:24;;;;;;;34.53;13.90;;;7.00;99.90;;;;;;4967539;28;20069;-79
2022/12/22 06:36:50;;;;;;;34.00;12.73;;;7.00;99.90;;;;;;4958486;28;20042;-79
2022/12/22 06:39:16;;;;;;;26.50;11.02;;;7.00;99.90;;;;;;4970950;28;20050;-78
2022/12/22 06:44:26;;;;;;;25.60;9.73;;;7.00;99.90;;;;;;4979967;28;20054;-78
2022/12/22 06:46:52;;;;;;;30.95;10.05;;;7.00;99.90;;;;;;4966318;28;20445;-78
2022/12/22 06:49:19;;;;;;;19.08;9.20;;;6.90;99.90;;;;;;4970417;28;20078;-78
2022/12/22 06:51:44;;;;;;;31.98;10.38;;;6.90;99.90;;;;;;4967152;28;20051;-78
2022/12/22 06:54:10;;;;;;;14.15;7.47;;;6.90;99.90;;;;;;4969749;28;20453;-79
2022/12/22 06:56:35;;;;;;;33.10;10.55;;;6.80;99.90;;;;;;4969338;28;20074;-79
2022/12/22 06:59:01;;;;;;;26.92;8.32;;;6.80;99.90;;;;;;4969995;28;20122;-76
2022/12/22 07:01:27;;;;;;;19.52;8.18;;;6.70;99.90;;;;;;4969442;28;20055;-78
2022/12/22 07:03:52;;;;;;;28.63;9.35;;;6.70;99.90;;;;;;4969602;28;20401;-77
2022/12/22 07:06:18;;;;;;;13.27;5.57;;;6.70;99.90;;;;;;4970405;28;20041;-76
2022/12/22 07:08:45;;;;;;;12.15;5.40;;;6.70;99.90;;;;;;4969842;28;20563;-75
2022/12/22 07:11:11;;;;;;;12.73;5.07;;;6.60;99.90;;;;;;4968886;28;20082;-76
2022/12/22 07:13:36;;;;;;;8.73;3.47;;;6.50;99.90;;;;;;4968825;28;20043;-75
2022/12/22 07:16:04;;;;;;;7.75;3.65;;;6.50;99.90;;;;;;4969464;28;20042;-76
2022/12/22 07:18:32;;;;;;;11.05;4.57;;;6.50;99.90;;;;;;4968428;28;20042;-75
2022/12/22 07:20:58;;;;;;;12.80;5.53;;;6.40;99.90;;;;;;4966989;28;20498;-76
2022/12/22 07:23:25;;;;;;;17.05;4.88;;;6.30;99.90;;;;;;4968790;28;20094;-76
2022/12/22 07:25:51;;;;;;;17.38;6.20;;;6.30;99.90;;;;;;4968886;28;20042;-76
2022/12/22 07:28:16;;;;;;;14.10;5.07;;;6.30;99.90;;;;;;4969983;28;20051;-76
2022/12/22 07:30:42;;;;;;;12.27;3.17;;;6.20;99.90;;;;;;4969273;28;20038;-76
2022/12/22 07:33:07;;;;;;;11.15;4.97;;;6.20;99.90;;;;;;4968816;28;20051;-75
2022/12/22 07:35:33;;;;;;;31.77;5.85;;;6.10;99.90;;;;;;4968438;28;20051;-76
2022/12/22 07:37:59;;;;;;;9.25;4.28;;;6.10;99.90;;;;;;4968095;28;20125;-76
2022/12/22 07:40:25;;;;;;;9.32;4.63;;;6.10;99.90;;;;;;4969306;28;20039;-75
2022/12/22 07:42:58;;;;;;;22.65;7.55;;;6.00;99.90;;;;;;4967306;28;20104;-76
2022/12/22 07:45:24;;;;;;;20.48;6.55;;;6.10;99.90;;;;;;4969406;28;20082;-76
2022/12/22 07:47:50;;;;;;;11.88;4.40;;;6.00;99.90;;;;;;4967551;28;20049;-76
2022/12/22 07:50:24;;;;;;;11.13;3.67;;;6.00;99.90;;;;;;4969118;28;20039;-75
2022/12/22 07:53:01;;;;;;;11.48;3.88;;;5.90;99.90;;;;;;4967750;28;20094;-77
2022/12/22 07:55:29;;;;;;;19.52;7.63;;;5.90;99.90;;;;;;4968904;28;20082;-76
2022/12/22 07:57:55;;;;;;;11.27;3.72;;;5.90;99.90;;;;;;4968745;28;20047;-76
2022/12/22 08:00:21;;;;;;;14.70;3.95;;;5.90;99.90;;;;;;4968807;28;20043;-76
2022/12/22 08:02:51;;;;;;;33.47;7.22;;;5.90;99.90;;;;;;4969059;28;20046;-76
2022/12/22 08:05:17;;;;;;;25.10;7.32;;;5.80;99.90;;;;;;4966966;28;20046;-76
2022/12/22 08:07:43;;;;;;;17.25;6.68;;;5.80;99.90;;;;;;4968021;28;20502;-76
2022/12/22 08:10:09;;;;;;;28.35;7.78;;;5.70;99.90;;;;;;4968210;28;20039;-76
2022/12/22 08:12:34;;;;;;;6.05;3.10;;;5.70;99.90;;;;;;4968248;28;20039;-76
2022/12/22 08:15:00;;;;;;;22.15;6.00;;;5.70;99.90;;;;;;4968506;28;20190;-76
2022/12/22 08:17:26;;;;;;;5.60;2.78;;;5.70;99.90;;;;;;4968440;28;20039;-76
2022/12/22 08:19:53;;;;;;;9.18;3.20;;;5.60;99.90;;;;;;4968300;28;20095;-75
2022/12/22 08:22:22;;;;;;;15.70;3.38;;;5.60;99.90;;;;;;4967809;28;20046;-77
2022/12/22 08:24:51;;;;;;;7.65;4.22;;;5.60;99.90;;;;;;4967878;28;20482;-76
2022/12/22 08:27:20;;;;;;;11.05;3.58;;;5.60;99.90;;;;;;4968095;28;20058;-76
2022/12/22 08:29:50;;;;;;;6.88;3.17;;;5.60;99.90;;;;;;4968038;28;20049;-76
2022/12/22 08:32:16;;;;;;;9.85;2.67;;;5.60;99.90;;;;;;4968614;28;20138;-76
2022/12/22 08:34:42;;;;;;;7.50;4.25;;;5.60;99.90;;;;;;4968581;28;20557;-76
2022/12/22 08:37:12;;;;;;;10.30;2.50;;;5.60;99.90;;;;;;4967349;28;20039;-76
2022/12/22 08:39:40;;;;;;;3.53;2.58;;;5.60;99.90;;;;;;4968487;28;20701;-79
2022/12/22 08:42:08;;;;;;;5.38;2.67;;;5.60;99.90;;;;;;4966823;28;20533;-76
2022/12/22 08:44:37;;;;;;;9.45;4.82;;;5.60;99.90;;;;;;4968279;28;20081;-76
2022/12/22 08:47:03;;;;;;;5.40;2.65;;;5.60;99.90;;;;;;4967927;28;20049;-76
2022/12/22 08:49:29;;;;;;;6.93;3.92;;;5.60;99.90;;;;;;4968323;28;20520;-76
2022/12/22 08:51:55;;;;;;;9.32;4.03;;;5.60;99.90;;;;;;4966842;28;20043;-77
2022/12/22 08:54:20;;;;;;;8.10;3.40;;;5.50;99.90;;;;;;4966924;28;20114;-76
2022/12/22 08:56:46;;;;;;;6.93;2.75;;;5.60;99.90;;;;;;4967236;28;20465;-76
2022/12/22 08:59:12;;;;;;;4.70;1.60;;;5.50;99.90;;;;;;4967909;28;20043;-76
2022/12/22 09:01:42;;;;;;;5.85;2.60;;;5.50;99.90;;;;;;4967586;28;20065;-74
2022/12/22 09:04:10;;;;;;;4.00;2.80;;;5.60;99.90;;;;;;4966702;28;20068;-75
2022/12/22 09:06:36;;;;;;;5.88;2.65;;;5.60;99.90;;;;;;4967374;28;20050;-75
2022/12/22 09:09:04;;;;;;;5.53;2.20;;;5.60;99.90;;;;;;4967382;28;20038;-75
2022/12/22 09:11:30;;;;;;;5.93;2.60;;;5.60;99.90;;;;;;4966734;28;20047;-75
2022/12/22 09:13:58;;;;;;;4.03;2.60;;;5.60;99.90;;;;;;4967536;28;20101;-75
2022/12/22 09:16:25;;;;;;;3.70;2.63;;;5.60;99.90;;;;;;4957411;28;20047;-75
2022/12/22 09:18:51;;;;;;;5.20;4.00;;;5.60;99.90;;;;;;4965405;28;20093;-80
2022/12/22 09:21:17;;;;;;;4.68;3.47;;;5.70;99.90;;;;;;4965112;28;20109;-80
2022/12/22 09:23:43;;;;;;;5.15;3.17;;;5.70;99.90;;;;;;4955065;28;20568;-79
2022/12/22 09:26:11;;;;;;;6.93;4.00;;;5.70;99.90;;;;;;4943984;28;20094;-79
2022/12/22 09:28:37;;;;;;;4.70;3.65;;;5.80;99.90;;;;;;4967907;28;20093;-77
2022/12/22 09:31:04;;;;;;;7.28;3.15;;;5.80;99.90;;;;;;4980657;28;20086;-77
2022/12/22 09:33:30;;;;;;;10.60;4.25;;;5.80;99.90;;;;;;4970886;28;20054;-77
2022/12/22 09:35:56;;;;;;;10.52;3.10;;;5.90;99.90;;;;;;4970101;28;20094;-76
2022/12/22 09:38:26;;;;;;;5.95;2.85;;;5.90;99.90;;;;;;4969580;28;20043;-76
2022/12/22 09:40:52;;;;;;;3.90;2.60;;;6.00;99.90;;;;;;4968852;28;20125;-76
2022/12/22 09:43:24;;;;;;;6.35;3.65;;;6.00;99.90;;;;;;4969909;28;20054;-76
2022/12/22 09:45:49;;;;;;;5.32;3.88;;;6.10;99.90;;;;;;4970499;28;20050;-77
2022/12/22 09:48:15;;;;;;;5.25;3.72;;;6.10;99.90;;;;;;4971560;28;20047;-76
2022/12/22 09:50:41;;;;;;;12.50;3.40;;;6.10;99.90;;;;;;4966409;28;20043;-76
2022/12/22 09:53:31;;;;;;;5.97;2.97;;;6.20;99.90;;;;;;4951564;28;20166;-76
2022/12/22 09:55:56;;;;;;;7.97;4.13;;;6.20;99.90;;;;;;4969440;28;20609;-76
2022/12/22 09:58:26;;;;;;;28.02;4.78;;;6.20;99.90;;;;;;4971185;28;20126;-76
2022/12/22 10:01:15;;;;;;;7.22;4.15;;;6.30;99.90;;;;;;4970408;28;20074;-76
2022/12/22 10:03:59;;;;;;;6.07;3.20;;;6.30;99.90;;;;;;4969638;28;20545;-76
2022/12/22 10:06:55;;;;;;;6.15;3.97;;;6.40;99.90;;;;;;4969658;28;20039;-76
2022/12/22 10:09:22;;;;;;;23.13;7.03;;;6.40;99.90;;;;;;4985137;28;20134;-76
2022/12/22 10:11:52;;;;;;;9.40;4.18;;;6.40;99.90;;;;;;4969907;28;20049;-76
2022/12/22 10:14:18;;;;;;;9.43;4.05;;;6.40;99.90;;;;;;4970948;28;20046;-76
2022/12/22 10:16:44;;;;;;;11.00;4.18;;;6.50;99.90;;;;;;4967715;28;20039;-76
2022/12/22 10:19:12;;;;;;;9.15;4.63;;;6.50;99.90;;;;;;4970437;28;20074;-76
2022/12/22 10:21:38;;;;;;;20.45;4.95;;;6.50;99.90;;;;;;4969445;28;20485;-76
2022/12/22 10:24:26;;;;;;;17.00;4.82;;;6.50;99.90;;;;;;4969632;28;20043;-76
2022/12/22 10:26:56;;;;;;;12.02;5.00;;;6.50;99.90;;;;;;4960974;28;20043;-77
2022/12/22 10:29:22;;;;;;;5.68;3.58;;;6.50;99.90;;;;;;4951210;28;20453;-76
2022/12/22 10:31:56;;;;;;;8.48;4.03;;;6.50;99.90;;;;;;4960013;28;20039;-79
2022/12/22 10:34:22;;;;;;;5.15;3.60;;;6.50;99.90;;;;;;4971088;28;20050;-77
2022/12/22 10:36:50;;;;;;;14.05;6.78;;;6.50;99.90;;;;;;4951587;28;20397;-76
2022/12/22 10:39:25;;;;;;;11.43;4.10;;;6.60;99.90;;;;;;4967462;28;20059;-76
2022/12/22 10:41:56;;;;;;;6.63;4.05;;;6.60;99.90;;;;;;4967889;28;20461;-78
2022/12/22 10:44:27;;;;;;;7.60;3.15;;;6.60;99.90;;;;;;4969579;28;20071;-77
2022/12/22 10:46:55;;;;;;;8.30;4.20;;;6.60;99.90;;;;;;4969039;28;20521;-77
2022/12/22 10:49:24;;;;;;;11.40;4.05;;;6.60;99.90;;;;;;4969484;28;20417;-74
2022/12/22 10:52:11;;;;;;;8.10;4.10;;;6.70;99.90;;;;;;4967816;28;20084;-80
2022/12/22 10:54:39;;;;;;;9.88;4.03;;;6.70;99.90;;;;;;4968043;28;20047;-76
2022/12/22 10:57:15;;;;;;;9.18;3.78;;;6.70;99.90;;;;;;4967722;28;20082;-77
2022/12/22 10:59:51;;;;;;;18.42;3.78;;;6.70;99.90;;;;;;4969181;28;20129;-77
2022/12/22 11:02:20;;;;;;;8.80;3.60;;;6.70;99.90;;;;;;4969586;28;20047;-77
2022/12/22 11:04:49;;;;;;;10.15;3.13;;;6.70;99.90;;;;;;4969766;28;20046;-77
2022/12/22 11:07:15;;;;;;;12.77;4.20;;;6.70;99.90;;;;;;4967200;28;20050;-78
2022/12/22 11:09:40;;;;;;;10.30;4.53;;;6.70;99.90;;;;;;4967712;28;20046;-78
2022/12/22 11:12:51;;;;;;;7.13;3.35;;;6.80;99.90;;;;;;4968652;28;20043;-79
2022/12/22 11:15:45;;;;;;;8.75;3.10;;;6.90;99.90;;;;;;4958331;28;20127;-79
2022/12/22 11:18:55;;;;;;;13.43;3.25;;;6.90;99.90;;;;;;4967323;28;20043;-75
2022/12/22 11:21:39;;;;;;;8.23;3.30;;;6.90;99.90;;;;;;4966169;28;20066;-77
2022/12/22 11:24:20;;;;;;;19.20;3.30;;;6.90;99.90;;;;;;4950542;28;20105;-77
2022/12/22 11:27:15;;;;;;;26.02;4.63;;;6.90;99.90;;;;;;4968665;28;20093;-77
2022/12/22 11:29:44;;;;;;;6.63;3.42;;;7.00;99.90;;;;;;4968542;28;20043;-77
2022/12/22 11:32:18;;;;;;;20.38;3.08;;;7.00;99.90;;;;;;4967801;28;20074;-77
2022/12/22 11:35:05;;;;;;;15.15;2.65;;;7.00;99.90;;;;;;4967730;28;20043;-76
2022/12/22 11:37:52;;;;;;;18.60;4.20;;;7.00;99.90;;;;;;4961650;28;20045;-77
2022/12/22 11:40:20;;;;;;;12.90;3.22;;;7.00;99.90;;;;;;4967821;28;20157;-77
2022/12/22 11:42:55;;;;;;;8.35;2.95;;;7.00;99.90;;;;;;4968868;28;20042;-77
2022/12/22 11:45:29;;;;;;;7.40;3.30;;;7.10;99.90;;;;;;4968635;28;20054;-77
2022/12/22 11:48:18;;;;;;;8.02;3.58;;;7.10;99.90;;;;;;4967305;28;20050;-77
2022/12/22 11:50:52;;;;;;;12.23;3.00;;;7.10;99.90;;;;;;4967800;28;20051;-77
2022/12/22 11:53:49;;;;;;;6.75;3.35;;;7.10;99.90;;;;;;4967182;28;20054;-77
2022/12/22 11:56:29;;;;;;;6.60;2.97;;;7.10;99.90;;;;;;4968553;28;20065;-77
2022/12/22 11:59:28;;;;;;;18.83;3.33;;;7.20;99.90;;;;;;4967897;28;20465;-77
2022/12/22 12:02:18;;;;;;;12.77;3.40;;;7.20;99.90;;;;;;4967064;28;20070;-77
2022/12/22 12:05:21;;;;;;;6.40;2.45;;;7.20;99.90;;;;;;4968821;28;20051;-77
2022/12/22 12:08:03;;;;;;;4.70;2.35;;;7.20;99.90;;;;;;4967877;28;20150;-77
2022/12/22 12:10:48;;;;;;;3.55;2.95;;;7.20;99.90;;;;;;4967662;28;20050;-77
2022/12/22 12:13:38;;;;;;;21.73;4.32;;;7.20;99.90;;;;;;4967312;28;20043;-77
2022/12/22 12:16:23;;;;;;;8.77;2.47;;;7.30;99.90;;;;;;4970530;28;20045;-78
2022/12/22 12:19:14;;;;;;;8.73;3.35;;;7.30;99.90;;;;;;4967470;28;20034;-74
2022/12/22 12:21:56;;;;;;;9.63;2.90;;;7.30;99.90;;;;;;4961157;28;20051;-75
2022/12/22 12:24:25;;;;;;;8.18;2.70;;;7.20;99.90;;;;;;4966757;28;20047;-76
2022/12/22 12:27:18;;;;;;;7.45;2.03;;;7.20;99.90;;;;;;4963097;28;20043;-76
2022/12/22 12:30:15;;;;;;;8.77;2.35;;;7.20;99.90;;;;;;4949154;29;20055;-76
2022/12/22 12:33:10;;;;;;;4.97;2.50;;;7.30;99.90;;;;;;4948591;28;20051;-76
2022/12/22 12:35:48;;;;;;;6.18;2.85;;;7.20;99.90;;;;;;4947308;29;20043;-76
2022/12/22 12:38:39;;;;;;;3.08;1.60;;;7.30;99.90;;;;;;4947426;29;20043;-76
2022/12/22 12:41:25;;;;;;;5.03;2.88;;;7.30;99.90;;;;;;4954356;28;20426;-76
2022/12/22 12:43:53;;;;;;;6.38;3.13;;;7.30;99.90;;;;;;4948424;28;20406;-78
2022/12/22 12:46:50;;;;;;;6.82;3.13;;;7.40;99.90;;;;;;4931642;28;20047;-76
2022/12/22 12:49:34;;;;;;;3.67;2.38;;;7.40;99.90;;;;;;4947720;29;20051;-77
2022/12/22 12:52:04;;;;;;;8.90;4.00;;;7.50;99.90;;;;;;4950441;29;20098;-77
2022/12/22 12:54:33;;;;;;;7.85;2.92;;;7.50;99.90;;;;;;4952136;29;20055;-77
2022/12/22 12:57:00;;;;;;;6.88;2.47;;;7.50;99.90;;;;;;4967238;28;20038;-77
2022/12/22 12:59:40;;;;;;;5.47;2.67;;;7.50;99.90;;;;;;4970978;28;20051;-78
2022/12/22 13:02:25;;;;;;;17.45;3.03;;;7.50;99.90;;;;;;4970665;28;20047;-78
2022/12/22 13:05:25;;;;;;;18.70;3.25;;;7.60;99.90;;;;;;4970666;28;20490;-77
2022/12/22 13:08:32;;;;;;;7.13;1.83;;;7.60;99.90;;;;;;4970036;28;20035;-78
2022/12/22 13:10:57;;;;;;;4.95;1.42;;;7.60;99.90;;;;;;4968881;28;20065;-78
2022/12/22 13:13:23;;;;;;;9.85;2.40;;;7.70;99.90;;;;;;4971022;28;20047;-77
2022/12/22 13:16:09;;;;;;;9.35;2.20;;;7.70;99.90;;;;;;4970598;28;20126;-77
2022/12/22 13:18:34;;;;;;;7.40;2.28;;;7.70;99.90;;;;;;4970889;28;20170;-77
2022/12/22 13:21:24;;;;;;;15.52;4.22;;;7.70;99.90;;;;;;4952171;28;20494;-77
2022/12/22 13:24:19;;;;;;;9.07;2.70;;;7.70;99.90;;;;;;4969339;28;20035;-78
2022/12/22 13:26:47;;;;;;;7.82;1.77;;;7.70;99.90;;;;;;4970522;28;20121;-77
2022/12/22 13:29:26;;;;;;;7.93;2.05;;;7.70;99.90;;;;;;5001729;28;20560;-77
2022/12/22 13:32:03;;;;;;;7.78;2.45;;;7.80;99.90;;;;;;4969826;28;20043;-78
2022/12/22 13:34:45;;;;;;;12.57;2.63;;;7.80;99.90;;;;;;4977747;28;20443;-76
2022/12/22 13:37:25;;;;;;;6.63;2.72;;;7.80;99.90;;;;;;4967036;28;20469;-77
2022/12/22 13:40:11;;;;;;;6.53;2.50;;;7.80;99.90;;;;;;4971170;28;20082;-78
2022/12/22 13:42:40;;;;;;;12.65;2.65;;;7.90;99.90;;;;;;4969825;28;20043;-76
2022/12/22 13:45:15;;;;;;;4.70;1.70;;;7.90;99.90;;;;;;4969717;28;20035;-76
2022/12/22 13:47:42;;;;;;;10.18;2.80;;;7.90;99.90;;;;;;4975054;28;20113;-76
2022/12/22 13:50:25;;;;;;;8.43;2.88;;;8.00;99.90;;;;;;4970068;28;20042;-76
2022/12/22 13:52:52;;;;;;;3.63;1.52;;;8.00;99.90;;;;;;4969859;28;20050;-76
2022/12/22 13:55:23;;;;;;;5.13;2.63;;;8.00;99.90;;;;;;4967172;28;20043;-77
2022/12/22 13:57:50;;;;;;;7.03;3.38;;;8.00;99.90;;;;;;4968012;28;20046;-78
2022/12/22 14:00:24;;;;;;;9.45;3.75;;;8.10;99.90;;;;;;4959850;28;20047;-77
2022/12/22 14:02:51;;;;;;;3.78;1.90;;;8.10;99.90;;;;;;4963213;28;20085;-77
2022/12/22 14:05:17;;;;;;;3.53;1.15;;;8.10;99.90;;;;;;4968208;28;20039;-77
2022/12/22 14:08:03;;;;;;;5.15;2.47;;;8.10;99.90;;;;;;4967860;28;20039;-77
2022/12/22 14:10:41;;;;;;;2.83;1.73;;;8.10;99.90;;;;;;4968355;28;20493;-77
2022/12/22 14:13:14;;;;;;;4.78;1.80;;;8.10;99.90;;;;;;4970162;28;20402;-77
2022/12/22 14:15:41;;;;;;;5.53;1.77;;;8.10;99.90;;;;;;4963173;28;20525;-77
2022/12/22 14:18:11;;;;;;;7.53;3.05;;;8.10;99.90;;;;;;4970083;28;20027;-77
2022/12/22 14:20:39;;;;;;;17.55;2.17;;;8.10;99.90;;;;;;4969015;28;20450;-77
2022/12/22 14:23:18;;;;;;;14.93;3.00;;;8.00;99.90;;;;;;4968471;28;20122;-77
2022/12/22 14:25:45;;;;;;;5.65;1.83;;;8.00;99.90;;;;;;4969416;28;20478;-77
2022/12/22 14:28:18;;;;;;;10.02;2.53;;;8.00;99.90;;;;;;4969814;28;20123;-77
2022/12/22 14:30:47;;;;;;;4.60;2.38;;;8.00;99.90;;;;;;4965281;28;20039;-77
2022/12/22 14:33:27;;;;;;;5.13;2.33;;;8.00;99.90;;;;;;4967398;28;20089;-77
2022/12/22 14:36:17;;;;;;;7.72;2.05;;;8.00;99.90;;;;;;4971439;28;20046;-77
2022/12/22 14:38:49;;;;;;;5.55;2.40;;;8.00;99.90;;;;;;4966952;28;20046;-77
2022/12/22 14:41:40;;;;;;;7.10;2.13;;;7.90;99.90;;;;;;4965320;28;20059;-78
2022/12/22 14:44:33;;;;;;;2.20;1.80;;;7.90;99.90;;;;;;4964034;28;20394;-77
2022/12/22 14:47:11;;;;;;;6.43;3.08;;;7.90;99.90;;;;;;4959375;28;20079;-77
2022/12/22 14:49:47;;;;;;;5.53;2.22;;;7.90;99.90;;;;;;4965299;28;20051;-77
2022/12/22 14:52:20;;;;;;;3.97;1.92;;;7.90;99.90;;;;;;4967344;28;20089;-77
2022/12/22 14:54:48;;;;;;;7.30;2.83;;;7.90;99.90;;;;;;4968881;28;20375;-79
2022/12/22 14:57:19;;;;;;;10.30;2.38;;;7.90;99.90;;;;;;4968019;28;20055;-78
2022/12/22 15:00:23;;;;;;;8.38;2.10;;;7.90;99.90;;;;;;4968022;28;20054;-79
2022/12/22 15:02:52;;;;;;;8.60;2.35;;;7.90;99.90;;;;;;4965939;28;20086;-79
2022/12/22 15:05:36;;;;;;;3.55;1.70;;;7.80;99.90;;;;;;4968578;28;20367;-79
2022/12/22 15:08:02;;;;;;;3.08;2.17;;;7.80;99.90;;;;;;4966519;28;20482;-79
2022/12/22 15:10:37;;;;;;;5.80;3.92;;;7.80;99.90;;;;;;4968429;28;20051;-78
2022/12/22 15:13:06;;;;;;;5.20;1.73;;;7.70;99.90;;;;;;4966301;28;20043;-78
2022/12/22 15:15:33;;;;;;;3.05;1.65;;;7.70;99.90;;;;;;4968850;28;20132;-79
2022/12/22 15:17:59;;;;;;;8.05;2.15;;;7.70;99.90;;;;;;4968166;28;20046;-78
2022/12/22 15:20:26;;;;;;;10.80;3.10;;;7.70;99.90;;;;;;4967723;28;20061;-78
2022/12/22 15:22:52;;;;;;;6.07;3.47;;;7.70;99.90;;;;;;4968264;28;20038;-79
2022/12/22 15:25:23;;;;;;;7.13;3.25;;;7.60;99.90;;;;;;4969169;28;20053;-79
2022/12/22 15:27:49;;;;;;;10.55;6.80;;;7.60;99.90;;;;;;4967040;28;20057;-79
2022/12/22 15:30:18;;;;;;;11.05;7.25;;;7.60;99.90;;;;;;4967383;28;20047;-79
2022/12/22 15:32:44;;;;;;;18.90;10.93;;;7.60;99.90;;;;;;4966924;28;20046;-79
2022/12/22 15:35:19;;;;;;;19.95;12.65;;;7.60;99.90;;;;;;4968139;28;20061;-78
2022/12/22 15:37:44;;;;;;;24.70;15.27;;;7.60;99.90;;;;;;4966630;28;20490;-78
2022/12/22 15:40:19;;;;;;;19.55;11.48;;;7.50;99.90;;;;;;4968752;28;20042;-78
2022/12/22 15:42:45;;;;;;;19.55;11.60;;;7.50;99.90;;;;;;4967566;28;20569;-79
2022/12/22 15:45:12;;;;;;;15.98;11.55;;;7.50;99.90;;;;;;4967554;28;20174;-79
2022/12/22 15:47:38;;;;;;;18.23;12.88;;;7.50;99.90;;;;;;4968002;28;20554;-79
2022/12/22 15:50:04;;;;;;;17.30;11.95;;;7.50;99.90;;;;;;4967395;28;20449;-79
2022/12/22 15:52:30;;;;;;;15.90;11.13;;;7.50;99.90;;;;;;4965904;28;20039;-79
2022/12/22 15:54:57;;;;;;;14.48;10.80;;;7.50;99.90;;;;;;4956968;28;20523;-79
2022/12/22 15:57:22;;;;;;;25.27;11.43;;;7.50;99.90;;;;;;4955284;28;20070;-79
2022/12/22 15:59:48;;;;;;;16.30;11.00;;;7.40;99.90;;;;;;4968618;28;20135;-79
2022/12/22 16:02:13;;;;;;;16.20;11.38;;;7.40;99.90;;;;;;4968367;28;20110;-79
2022/12/22 16:04:39;;;;;;;12.63;9.98;;;7.40;99.90;;;;;;4968478;28;20046;-79
2022/12/22 16:07:05;;;;;;;15.60;10.70;;;7.40;99.90;;;;;;4966685;28;20059;-79
2022/12/22 16:09:40;;;;;;;18.25;11.15;;;7.40;99.90;;;;;;4966870;28;20046;-79
2022/12/22 16:12:12;;;;;;;14.80;10.30;;;7.40;99.90;;;;;;4947977;28;20062;-79
2022/12/22 16:14:38;;;;;;;18.20;11.18;;;7.40;99.90;;;;;;4948261;28;20883;-79
2022/12/22 16:17:04;;;;;;;20.15;10.45;;;7.40;99.90;;;;;;4947978;28;20482;-79
2022/12/22 16:19:30;;;;;;;17.42;12.95;;;7.40;99.90;;;;;;4963449;28;20063;-79
2022/12/22 16:21:56;;;;;;;29.65;20.02;;;7.40;99.90;;;;;;4959994;28;20068;-79
2022/12/22 16:24:27;;;;;;;16.95;10.02;;;7.40;99.90;;;;;;4967434;28;20102;-79
2022/12/22 16:26:55;;;;;;;15.57;11.27;;;7.30;99.90;;;;;;4965889;28;20035;-79
2022/12/22 16:29:22;;;;;;;23.33;12.52;;;7.30;99.90;;;;;;4966754;28;20078;-79
2022/12/22 16:31:48;;;;;;;16.80;11.80;;;7.30;99.90;;;;;;4966547;28;20035;-79
2022/12/22 16:34:14;;;;;;;24.20;12.23;;;7.30;99.90;;;;;;4967972;28;20097;-79
2022/12/22 16:36:39;;;;;;;16.17;11.05;;;7.30;99.90;;;;;;4964660;28;20078;-79
2022/12/22 16:39:05;;;;;;;18.10;10.30;;;7.30;99.90;;;;;;4966656;28;20086;-79
2022/12/22 16:41:31;;;;;;;19.83;13.65;;;7.20;99.90;;;;;;4967450;28;20401;-79
2022/12/22 16:43:58;;;;;;;20.65;10.32;;;7.20;99.90;;;;;;4967161;28;20034;-79